createdAt,value
2018-03-27T00:02:18.169Z,55.00
2018-03-27T00:04:45.890Z,58.15
2018-03-27T00:07:13.406Z,51.60
2018-03-27T00:09:41.446Z,57.20
2018-03-27T00:12:09.181Z,53.35
2018-03-27T00:14:36.707Z,58.38
2018-03-27T00:17:04.228Z,56.03
2018-03-27T00:19:31.792Z,53.50
2018-03-27T00:21:59.309Z,57.47
2018-03-27T00:24:26.858Z,57.55
2018-03-27T00:27:00.996Z,53.83
2018-03-27T00:29:40.349Z,55.97
2018-03-27T00:32:19.713Z,55.88
2018-03-27T00:34:59.741Z,54.70
2018-03-27T00:37:39.084Z,53.17
2018-03-27T00:40:18.461Z,56.45
2018-03-27T00:42:52.802Z,52.67
2018-03-27T00:45:20.313Z,53.60
2018-03-27T00:47:47.822Z,52.45
2018-03-27T00:50:15.394Z,56.90
2018-03-27T00:52:42.908Z,52.28
2018-03-27T00:55:10.421Z,54.10
2018-03-27T00:57:37.969Z,55.72
2018-03-27T01:00:05.514Z,55.08
2018-03-27T01:02:33.033Z,50.70
2018-03-27T01:05:06.200Z,53.45
2018-03-27T01:07:33.716Z,54.67
2018-03-27T01:10:01.233Z,49.60
2018-03-27T01:12:28.942Z,54.50
2018-03-27T01:14:56.454Z,53.25
2018-03-27T01:17:23.981Z,51.58
2018-03-27T01:19:51.517Z,54.13
2018-03-27T01:22:19.049Z,52.83
2018-03-27T01:24:46.566Z,53.00
2018-03-27T01:27:14.109Z,49.72
2018-03-27T01:29:41.630Z,51.72
2018-03-27T01:32:09.154Z,52.45
2018-03-27T01:34:36.879Z,50.60
2018-03-27T01:37:04.421Z,49.45
2018-03-27T01:39:32.932Z,51.03
2018-03-27T01:42:00.470Z,51.58
2018-03-27T01:44:27.986Z,50.28
2018-03-27T01:46:55.519Z,50.15
2018-03-27T01:49:23.059Z,49.00
2018-03-27T01:51:50.581Z,48.00
2018-03-27T01:54:18.090Z,48.95
2018-03-27T01:56:45.629Z,49.78
2018-03-27T01:59:13.148Z,48.15
2018-03-27T02:01:40.677Z,48.70
2018-03-27T02:04:08.244Z,52.83
2018-03-27T02:06:35.758Z,46.67
2018-03-27T02:09:03.290Z,51.25
2018-03-27T02:11:36.497Z,48.10
2018-03-27T02:14:09.533Z,47.10
2018-03-27T02:16:42.778Z,49.67
2018-03-27T02:19:15.821Z,48.17
2018-03-27T02:21:42.809Z,48.78
2018-03-27T02:24:11.065Z,50.80
2018-03-27T02:26:38.585Z,46.15
2018-03-27T02:29:06.125Z,46.37
2018-03-27T02:31:33.702Z,46.85
2018-03-27T02:34:01.217Z,47.55
2018-03-27T02:36:28.762Z,46.40
2018-03-27T02:38:56.291Z,46.05
2018-03-27T02:41:23.802Z,50.33
2018-03-27T02:43:51.352Z,45.33
2018-03-27T02:46:18.874Z,45.72
2018-03-27T02:48:46.397Z,43.55
2018-03-27T02:51:13.944Z,46.33
2018-03-27T02:53:41.468Z,48.50
2018-03-27T02:56:08.990Z,47.58
2018-03-27T02:58:36.562Z,49.40
2018-03-27T03:01:04.081Z,44.65
2018-03-27T03:03:31.593Z,44.47
2018-03-27T03:05:59.138Z,46.90
2018-03-27T03:08:26.656Z,48.50
2018-03-27T03:10:54.181Z,46.37
2018-03-27T03:13:21.740Z,45.65
2018-03-27T03:15:49.263Z,44.60
2018-03-27T03:18:16.789Z,47.42
2018-03-27T03:20:44.333Z,42.05
2018-03-27T03:23:11.849Z,45.58
2018-03-27T03:25:39.368Z,45.50
2018-03-27T03:28:06.921Z,44.20
2018-03-27T03:30:34.439Z,43.80
2018-03-27T03:33:01.977Z,47.53
2018-03-27T03:35:29.565Z,48.78
2018-03-27T03:37:57.062Z,46.88
2018-03-27T03:40:24.582Z,47.33
2018-03-27T03:42:52.122Z,47.03
2018-03-27T03:45:19.640Z,44.35
2018-03-27T03:47:47.158Z,47.42
2018-03-27T03:50:14.710Z,48.30
2018-03-27T03:52:42.238Z,47.95
2018-03-27T03:55:09.761Z,44.95
2018-03-27T03:57:37.302Z,49.08
2018-03-27T04:00:04.822Z,48.30
2018-03-27T04:02:32.344Z,49.28
2018-03-27T04:04:59.890Z,47.17
2018-03-27T04:07:27.415Z,48.42
2018-03-27T04:09:54.929Z,47.55
2018-03-27T04:12:22.477Z,47.28
2018-03-27T04:14:49.991Z,42.85
2018-03-27T04:17:17.514Z,43.47
2018-03-27T04:19:45.058Z,47.50
2018-03-27T04:22:13.033Z,44.30
2018-03-27T04:24:40.578Z,50.17
2018-03-27T04:27:08.174Z,46.65
2018-03-27T04:29:35.696Z,48.42
2018-03-27T04:32:03.261Z,46.28
2018-03-27T04:34:30.776Z,51.28
2018-03-27T04:36:58.326Z,56.13
2018-03-27T04:39:25.869Z,53.80
2018-03-27T04:41:53.431Z,53.80
2018-03-27T04:44:20.975Z,56.42
2018-03-27T04:46:48.491Z,54.10
2018-03-27T04:49:16.043Z,55.10
2018-03-27T04:51:43.593Z,49.42
2018-03-27T04:54:11.116Z,50.22
2018-03-27T04:56:38.666Z,52.88
2018-03-27T04:59:06.274Z,52.75
2018-03-27T05:01:33.814Z,50.00
2018-03-27T05:04:01.357Z,49.95
2018-03-27T05:06:28.900Z,48.90
2018-03-27T05:08:56.428Z,47.42
2018-03-27T05:11:23.961Z,46.90
2018-03-27T05:13:51.502Z,47.47
2018-03-27T05:16:19.048Z,46.30
2018-03-27T05:18:46.574Z,46.53
2018-03-27T05:21:14.188Z,47.53
2018-03-27T05:23:41.653Z,47.67
2018-03-27T05:26:09.697Z,45.42
2018-03-27T05:28:37.266Z,43.97
2018-03-27T05:31:04.785Z,43.42
2018-03-27T05:33:32.333Z,43.97
2018-03-27T05:35:59.856Z,43.75
2018-03-27T05:38:27.417Z,43.25
2018-03-27T05:40:55.875Z,41.67
2018-03-27T05:43:23.409Z,42.88
2018-03-27T05:45:50.987Z,42.38
2018-03-27T05:48:18.506Z,45.28
2018-03-27T05:50:46.191Z,44.53
2018-03-27T05:53:13.715Z,42.05
2018-03-27T05:55:41.238Z,45.53
2018-03-27T05:58:08.777Z,50.10
2018-03-27T06:00:36.301Z,41.72
2018-03-27T06:03:03.982Z,41.75
2018-03-27T06:05:31.701Z,43.92
2018-03-27T06:07:59.218Z,40.30
2018-03-27T06:10:26.765Z,44.08
2018-03-27T06:12:54.290Z,41.37
2018-03-27T06:15:22.289Z,41.33
2018-03-27T06:17:49.809Z,43.65
2018-03-27T06:20:17.330Z,41.50
2018-03-27T06:22:44.870Z,38.08
2018-03-27T06:25:12.394Z,41.22
2018-03-27T06:27:40.370Z,41.08
2018-03-27T06:30:07.881Z,39.53
2018-03-27T06:32:35.404Z,42.50
2018-03-27T06:35:03.411Z,40.58
2018-03-27T06:37:30.922Z,39.72
2018-03-27T06:39:58.597Z,39.60
2018-03-27T06:42:26.108Z,37.17
2018-03-27T06:44:53.694Z,39.55
2018-03-27T06:47:21.237Z,38.95
2018-03-27T06:49:48.754Z,42.80
2018-03-27T06:52:17.245Z,36.47
2018-03-27T06:54:45.545Z,33.47
2018-03-27T06:57:13.999Z,35.53
2018-03-27T06:59:41.547Z,33.45
2018-03-27T07:02:09.061Z,34.63
2018-03-27T07:04:37.193Z,36.13
2018-03-27T07:07:05.669Z,35.40
2018-03-27T07:09:33.185Z,38.10
2018-03-27T07:12:00.734Z,34.13
2018-03-27T07:14:28.241Z,33.17
2018-03-27T07:16:55.982Z,37.20
2018-03-27T07:19:23.899Z,33.80
2018-03-27T07:21:51.766Z,34.53
2018-03-27T07:24:19.812Z,35.85
2018-03-27T07:26:48.294Z,33.13
2018-03-27T07:29:15.930Z,35.55
2018-03-27T07:31:43.446Z,37.97
2018-03-27T07:34:11.830Z,34.80
2018-03-27T07:36:40.310Z,34.38
2018-03-27T07:39:07.806Z,36.03
2018-03-27T07:41:35.366Z,33.08
2018-03-27T07:44:03.306Z,32.15
2018-03-27T07:46:31.652Z,35.05
2018-03-27T07:48:59.590Z,31.98
2018-03-27T07:51:27.574Z,36.55
2018-03-27T07:53:55.465Z,30.42
2018-03-27T07:56:22.993Z,31.85
2018-03-27T07:58:50.511Z,34.17
2018-03-27T08:01:18.939Z,30.98
2018-03-27T08:03:47.425Z,33.38
2018-03-27T08:06:14.975Z,34.05
2018-03-27T08:08:42.946Z,29.85
2018-03-27T08:11:10.530Z,32.20
2018-03-27T08:13:38.025Z,31.48
2018-03-27T08:16:05.541Z,34.90
2018-03-27T08:18:34.266Z,31.75
2018-03-27T08:21:02.178Z,30.70
2018-03-27T08:23:30.146Z,30.67
2018-03-27T08:25:57.717Z,28.95
2018-03-27T08:28:26.177Z,27.52
2018-03-27T08:30:53.836Z,28.95
2018-03-27T08:33:21.360Z,26.48
2018-03-27T08:35:49.005Z,25.37
2018-03-27T08:38:16.578Z,26.17
2018-03-27T08:40:44.129Z,22.55
2018-03-27T08:43:11.747Z,26.85
2018-03-27T08:45:39.265Z,24.02
2018-03-27T08:48:06.793Z,24.05
2018-03-27T08:50:34.341Z,22.87
2018-03-27T08:53:01.870Z,24.60
2018-03-27T08:55:29.421Z,25.73
2018-03-27T08:57:56.953Z,24.42
2018-03-27T09:00:24.483Z,25.75
2018-03-27T09:02:52.034Z,24.30
2018-03-27T09:05:19.572Z,24.65
2018-03-27T09:07:47.799Z,25.02
2018-03-27T09:10:15.353Z,25.60
2018-03-27T09:12:42.877Z,21.42
2018-03-27T09:15:10.757Z,23.10
2018-03-27T09:17:38.274Z,20.60
2018-03-27T09:20:06.265Z,18.52
2018-03-27T09:22:34.382Z,21.08
2018-03-27T09:25:01.998Z,21.00
2018-03-27T09:27:29.547Z,19.83
2018-03-27T09:29:57.152Z,21.57
2018-03-27T09:32:24.936Z,19.63
2018-03-27T09:34:52.644Z,19.30
2018-03-27T09:37:20.397Z,18.90
2018-03-27T09:39:47.952Z,19.93
2018-03-27T09:42:15.493Z,19.60
2018-03-27T09:44:43.136Z,18.13
2018-03-27T09:47:11.577Z,18.57
2018-03-27T09:49:39.224Z,20.50
2018-03-27T09:52:07.393Z,19.50
2018-03-27T09:54:34.941Z,19.93
2018-03-27T09:57:03.543Z,21.30
2018-03-27T09:59:32.169Z,21.53
2018-03-27T10:01:59.884Z,18.53
2018-03-27T10:04:27.556Z,16.07
2018-03-27T10:06:57.161Z,20.10
2018-03-27T10:09:25.033Z,17.80
2018-03-27T10:11:56.199Z,18.67
2018-03-27T10:14:25.926Z,19.93
2018-03-27T10:16:55.418Z,18.67
2018-03-27T10:19:24.381Z,21.63
2018-03-27T10:21:52.406Z,20.90
2018-03-27T10:24:20.418Z,20.67
2018-03-27T10:26:48.593Z,34.83
2018-03-27T10:29:17.124Z,23.03
2018-03-27T10:31:45.656Z,20.77
2018-03-27T10:34:13.209Z,20.47
2018-03-27T10:36:40.736Z,19.17
2018-03-27T10:39:08.543Z,17.70
2018-03-27T10:41:36.054Z,18.60
2018-03-27T10:44:03.966Z,17.57
2018-03-27T10:46:31.534Z,16.13
2018-03-27T10:48:59.084Z,14.53
2018-03-27T10:51:26.670Z,16.83
2018-03-27T10:53:54.192Z,15.50
2018-03-27T10:56:21.737Z,16.40
2018-03-27T10:58:49.290Z,17.50
2018-03-27T11:01:16.818Z,16.43
2018-03-27T11:03:44.551Z,16.77
2018-03-27T11:06:12.155Z,14.17
2018-03-27T11:08:39.685Z,16.83
2018-03-27T11:11:07.234Z,16.13
2018-03-27T11:13:34.779Z,19.17
2018-03-27T11:16:02.337Z,19.93
2018-03-27T11:18:29.852Z,18.47
2018-03-27T11:20:57.373Z,22.20
2018-03-27T11:23:24.922Z,18.20
2018-03-27T11:25:52.437Z,16.37
2018-03-27T11:28:20.326Z,17.00
2018-03-27T11:30:47.841Z,17.00
2018-03-27T11:33:15.360Z,14.63
2018-03-27T11:35:42.916Z,15.00
2018-03-27T11:38:10.437Z,16.17
2018-03-27T11:40:38.218Z,15.10
2018-03-27T11:43:05.744Z,15.88
2018-03-27T11:45:33.281Z,15.40
2018-03-27T11:48:00.834Z,16.87
2018-03-27T11:50:28.362Z,15.95
2018-03-27T11:52:56.322Z,17.98
2018-03-27T11:55:23.839Z,16.37
2018-03-27T11:57:51.362Z,16.95
2018-03-27T12:00:18.913Z,17.20
2018-03-27T12:02:46.685Z,15.90
2018-03-27T12:05:14.250Z,15.75
2018-03-27T12:07:41.790Z,14.73
2018-03-27T12:10:09.311Z,17.42
2018-03-27T12:12:36.849Z,15.43
2018-03-27T12:15:04.362Z,14.40
2018-03-27T12:17:32.059Z,14.73
2018-03-27T12:20:00.514Z,13.60
2018-03-27T12:22:28.043Z,11.43
2018-03-27T12:24:55.599Z,11.37
2018-03-27T12:27:23.113Z,11.20
2018-03-27T12:29:50.833Z,10.27
2018-03-27T12:32:18.361Z,10.90
2018-03-27T12:34:45.882Z,11.80
2018-03-27T12:37:13.430Z,10.90
2018-03-27T12:39:40.953Z,10.20
2018-03-27T12:42:08.660Z,10.60
2018-03-27T12:44:37.053Z,10.77
2018-03-27T12:47:04.566Z,12.63
2018-03-27T12:49:32.102Z,11.90
2018-03-27T12:51:59.620Z,11.33
2018-03-27T12:54:28.215Z,11.97
2018-03-27T12:56:56.167Z,11.63
2018-03-27T12:59:23.826Z,10.93
2018-03-27T13:01:51.369Z,12.03
2018-03-27T13:04:18.891Z,12.27
2018-03-27T13:06:46.601Z,11.23
2018-03-27T13:09:14.117Z,10.57
2018-03-27T13:11:41.663Z,11.10
2018-03-27T13:14:10.103Z,12.00
2018-03-27T13:16:37.659Z,11.70
2018-03-27T13:19:05.369Z,11.10
2018-03-27T13:21:32.881Z,11.70
2018-03-27T13:24:01.137Z,11.53
2018-03-27T13:26:28.682Z,10.40
2018-03-27T13:28:56.201Z,10.33
2018-03-27T13:31:23.914Z,10.97
2018-03-27T13:33:51.429Z,9.93
2018-03-27T13:36:18.946Z,10.33
2018-03-27T13:38:46.528Z,10.00
2018-03-27T13:41:14.069Z,8.80
2018-03-27T13:43:42.423Z,9.07
2018-03-27T13:46:10.564Z,9.77
2018-03-27T13:48:38.092Z,11.20
2018-03-27T13:51:05.642Z,11.03
2018-03-27T13:53:33.193Z,9.77
2018-03-27T13:56:01.054Z,11.70
2018-03-27T13:58:28.573Z,10.83
2018-03-27T14:00:56.092Z,11.10
2018-03-27T14:03:23.636Z,10.70
2018-03-27T14:05:51.170Z,10.80
2018-03-27T14:08:18.841Z,11.27
2018-03-27T14:10:46.491Z,12.27
2018-03-27T14:13:14.005Z,10.10
2018-03-27T14:15:41.553Z,10.20
2018-03-27T14:18:09.129Z,10.83
2018-03-27T14:20:36.702Z,10.10
2018-03-27T14:23:04.240Z,10.77
2018-03-27T14:25:32.094Z,11.20
2018-03-27T14:27:59.836Z,11.10
2018-03-27T14:30:27.414Z,10.63
2018-03-27T14:32:56.768Z,10.73
2018-03-27T14:35:24.431Z,11.10
2018-03-27T14:37:52.242Z,11.30
2018-03-27T14:40:19.910Z,10.83
2018-03-27T14:42:47.461Z,11.47
2018-03-27T14:45:15.429Z,9.90
2018-03-27T14:47:43.096Z,10.80
2018-03-27T14:50:10.754Z,10.40
2018-03-27T14:52:38.632Z,10.10
2018-03-27T14:55:06.185Z,9.60
2018-03-27T14:57:34.148Z,9.97
2018-03-27T15:00:02.157Z,10.47
2018-03-27T15:02:29.878Z,10.03
2018-03-27T15:04:57.585Z,9.70
2018-03-27T15:07:25.821Z,9.53
2018-03-27T15:09:53.598Z,10.97
2018-03-27T15:12:21.530Z,11.00
2018-03-27T15:14:49.335Z,11.17
2018-03-27T15:17:17.619Z,10.93
2018-03-27T15:19:45.416Z,11.80
2018-03-27T15:22:14.160Z,10.00
2018-03-27T15:24:42.924Z,10.43
2018-03-27T15:27:11.312Z,12.07
2018-03-27T15:29:39.179Z,10.90
2018-03-27T15:32:07.046Z,11.13
2018-03-27T15:34:35.424Z,10.80
2018-03-27T15:37:04.084Z,11.10
2018-03-27T15:39:31.977Z,10.40
2018-03-27T15:41:59.946Z,12.20
2018-03-27T15:44:28.141Z,11.43
2018-03-27T15:46:57.272Z,12.50
2018-03-27T15:49:25.439Z,11.83
2018-03-27T15:51:55.112Z,10.53
2018-03-27T15:54:23.941Z,8.80
2018-03-27T15:56:52.604Z,10.80
2018-03-27T15:59:21.982Z,12.40
2018-03-27T16:01:49.841Z,11.50
2018-03-27T16:04:17.811Z,10.47
2018-03-27T16:06:45.562Z,12.17
2018-03-27T16:09:13.340Z,13.60
2018-03-27T16:11:41.391Z,12.30
2018-03-27T16:14:10.139Z,13.60
2018-03-27T16:16:38.166Z,11.13
2018-03-27T16:19:05.900Z,13.40
2018-03-27T16:21:33.605Z,13.20
2018-03-27T16:24:01.768Z,11.55
2018-03-27T16:26:29.638Z,13.32
2018-03-27T16:28:57.863Z,13.50
2018-03-27T16:31:25.777Z,14.35
2018-03-27T16:33:53.642Z,12.60
2018-03-27T16:36:21.816Z,13.40
2018-03-27T16:38:49.798Z,12.95
2018-03-27T16:41:17.755Z,13.40
2018-03-27T16:43:45.641Z,14.70
2018-03-27T16:46:13.384Z,12.48
2018-03-27T16:48:41.865Z,12.20
2018-03-27T16:51:09.651Z,13.73
2018-03-27T16:53:37.416Z,12.85
2018-03-27T16:56:05.367Z,10.80
2018-03-27T16:58:33.110Z,11.85
2018-03-27T17:01:01.612Z,12.48
2018-03-27T17:03:29.580Z,11.48
2018-03-27T17:05:57.548Z,12.18
2018-03-27T17:08:25.520Z,12.88
2018-03-27T17:10:53.382Z,12.65
2018-03-27T17:13:22.444Z,11.75
2018-03-27T17:15:50.344Z,12.95
2018-03-27T17:18:18.436Z,13.25
2018-03-27T17:20:46.691Z,13.20
2018-03-27T17:23:14.770Z,12.40
2018-03-27T17:25:43.121Z,12.82
2018-03-27T17:28:11.007Z,11.60
2018-03-27T17:30:38.874Z,12.27
2018-03-27T17:33:06.798Z,10.20
2018-03-27T17:35:34.593Z,10.82
2018-03-27T17:38:02.688Z,14.40
2018-03-27T17:40:31.876Z,11.25
2018-03-27T17:42:59.716Z,10.98
2018-03-27T17:45:27.712Z,14.18
2018-03-27T17:47:55.588Z,11.80
2018-03-27T17:50:24.264Z,12.40
2018-03-27T17:52:52.645Z,13.35
2018-03-27T17:55:20.592Z,13.00
2018-03-27T17:57:48.683Z,10.52
2018-03-27T18:00:16.684Z,13.00
2018-03-27T18:02:45.208Z,12.98
2018-03-27T18:05:13.104Z,13.90
2018-03-27T18:07:40.977Z,14.65
2018-03-27T18:10:09.040Z,14.10
2018-03-27T18:12:38.340Z,14.77
2018-03-27T18:15:06.521Z,15.57
2018-03-27T18:17:34.381Z,15.02
2018-03-27T18:20:02.349Z,16.17
2018-03-27T18:22:30.319Z,14.10
2018-03-27T18:24:58.082Z,14.10
2018-03-27T18:27:26.343Z,14.87
2018-03-27T18:29:54.328Z,15.68
2018-03-27T18:32:22.131Z,15.02
2018-03-27T18:34:50.118Z,15.48
2018-03-27T18:37:18.268Z,15.95
2018-03-27T18:39:46.306Z,14.93
2018-03-27T18:42:15.343Z,15.27
2018-03-27T18:44:43.268Z,16.02
2018-03-27T18:47:11.161Z,15.45
2018-03-27T18:49:39.102Z,15.30
2018-03-27T18:52:07.276Z,17.33
2018-03-27T18:54:35.166Z,14.98
2018-03-27T18:57:03.113Z,18.62
2018-03-27T18:59:32.106Z,18.52
2018-03-27T19:02:00.176Z,19.02
2018-03-27T19:04:28.760Z,16.95
2018-03-27T19:06:57.444Z,17.85
2018-03-27T19:09:26.303Z,17.02
2018-03-27T19:11:54.612Z,17.27
2018-03-27T19:14:22.479Z,21.15
2018-03-27T19:16:50.787Z,17.42
2018-03-27T19:19:18.997Z,16.50
2018-03-27T19:21:47.724Z,16.80
2018-03-27T19:24:16.403Z,16.90
2018-03-27T19:26:44.270Z,16.65
2018-03-27T19:29:12.969Z,19.17
2018-03-27T19:31:40.822Z,18.48
2018-03-27T19:34:08.688Z,18.58
2018-03-27T19:36:36.657Z,19.12
2018-03-27T19:39:04.729Z,18.23
2018-03-27T19:41:32.768Z,18.50
2018-03-27T19:44:01.506Z,16.30
2018-03-27T19:46:29.456Z,15.80
2018-03-27T19:48:57.397Z,16.20
2018-03-27T19:51:26.219Z,15.93
2018-03-27T19:53:54.181Z,14.85
2018-03-27T19:56:22.219Z,17.25
2018-03-27T19:58:50.324Z,16.35
2018-03-27T20:01:18.496Z,16.30
2018-03-27T20:03:46.978Z,16.67
2018-03-27T20:06:14.947Z,15.65
2018-03-27T20:08:42.812Z,17.30
2018-03-27T20:11:11.723Z,16.20
2018-03-27T20:13:40.038Z,14.60
2018-03-27T20:16:08.563Z,15.50
2018-03-27T20:18:36.548Z,15.77
2018-03-27T20:21:04.399Z,16.20
2018-03-27T20:23:32.691Z,18.05
2018-03-27T20:26:00.643Z,18.17
2018-03-27T20:28:28.510Z,13.43
2018-03-27T20:30:56.453Z,18.40
2018-03-27T20:33:24.344Z,16.35
2018-03-27T20:35:52.487Z,18.35
2018-03-27T20:38:20.796Z,18.20
2018-03-27T20:40:49.598Z,18.67
2018-03-27T20:43:17.552Z,19.10
2018-03-27T20:45:45.624Z,17.80
2018-03-27T20:48:13.572Z,17.52
2018-03-27T20:50:41.460Z,19.10
2018-03-27T20:53:09.326Z,17.98
2018-03-27T20:55:37.295Z,19.15
2018-03-27T20:58:06.082Z,17.15
2018-03-27T21:00:35.178Z,17.12
2018-03-27T21:03:04.008Z,16.65
2018-03-27T21:05:32.107Z,14.43
2018-03-27T21:08:00.725Z,17.98
2018-03-27T21:10:28.597Z,15.25
2018-03-27T21:12:56.764Z,18.37
2018-03-27T21:15:25.245Z,17.42
2018-03-27T21:17:53.112Z,17.10
2018-03-27T21:20:21.408Z,16.08
2018-03-27T21:22:49.252Z,15.85
2018-03-27T21:25:17.170Z,16.48
2018-03-27T21:27:45.067Z,18.23
2018-03-27T21:30:12.956Z,19.30
2018-03-27T21:32:41.745Z,17.95
2018-03-27T21:35:09.612Z,19.15
2018-03-27T21:37:37.902Z,20.50
2018-03-27T21:40:05.959Z,18.27
2018-03-27T21:42:33.825Z,17.48
2018-03-27T21:45:02.631Z,19.15
2018-03-27T21:47:30.479Z,20.23
2018-03-27T21:49:59.882Z,17.10
2018-03-27T21:52:29.080Z,18.48
2018-03-27T21:54:56.947Z,19.52
2018-03-27T21:57:25.019Z,19.37
2018-03-27T21:59:52.787Z,18.80
2018-03-27T22:02:20.721Z,19.30
2018-03-27T22:04:49.453Z,18.48
2018-03-27T22:07:17.303Z,19.40
2018-03-27T22:09:45.072Z,18.45
2018-03-27T22:12:12.962Z,19.48
2018-03-27T22:14:41.821Z,17.05
2018-03-27T22:17:09.692Z,15.65
2018-03-27T22:19:37.639Z,16.85
2018-03-27T22:22:05.528Z,17.42
2018-03-27T22:24:33.291Z,15.93
2018-03-27T22:27:01.157Z,19.62
2018-03-27T22:29:28.982Z,14.40
2018-03-27T22:31:56.682Z,17.27
2018-03-27T22:34:24.431Z,15.35
2018-03-27T22:36:52.135Z,19.85
2018-03-27T22:39:19.780Z,15.82
2018-03-27T22:41:47.295Z,16.77
2018-03-27T22:44:15.096Z,16.37
2018-03-27T22:46:42.662Z,16.85
2018-03-27T22:49:10.282Z,18.40
2018-03-27T22:51:37.841Z,15.95
2018-03-27T22:54:05.645Z,13.93
2018-03-27T22:56:33.160Z,15.43
2018-03-27T22:59:00.703Z,14.02
2018-03-27T23:01:29.048Z,13.30
2018-03-27T23:03:56.581Z,12.20
2018-03-27T23:06:24.186Z,12.13
2018-03-27T23:08:51.781Z,12.00
2018-03-27T23:11:19.302Z,11.85
2018-03-27T23:13:46.837Z,12.05
2018-03-27T23:16:14.357Z,12.50
2018-03-27T23:18:41.934Z,10.32
2018-03-27T23:21:09.497Z,10.15
2018-03-27T23:23:37.019Z,10.05
2018-03-27T23:26:04.541Z,9.80
2018-03-27T23:28:32.283Z,9.30
2018-03-27T23:31:00.849Z,8.45
2018-03-27T23:33:28.434Z,9.82
2018-03-27T23:35:56.401Z,10.80
2018-03-27T23:38:23.933Z,11.30
2018-03-27T23:40:51.513Z,12.07
2018-03-27T23:43:19.975Z,11.88
2018-03-27T23:45:47.849Z,10.52
2018-03-27T23:48:15.366Z,10.50
2018-03-27T23:50:42.886Z,11.20
2018-03-27T23:53:10.899Z,12.82
2018-03-27T23:55:38.415Z,10.77
2018-03-27T23:58:05.970Z,11.15
